• Join FlightAware (Why Join?)
  • Login
  • US Flag 
11:32PM EST


 

Airport Tracker/Info


-or-


 

Live Flight TrackerFlight Track Log ✈ FDX1482 ✈ 09-May-2013 ✈ KMEM - KBWI

Flight Track Log - Related Links

Times and Time Zones

All times are in EDT time to prevent confusion due to time zone crossing. See the FDX1482 flight status page for this flight to view local times or setup timezone preferences in your user account.

Time Position Orientation Groundspeed Altitude Reporting Facility
EDT Latitude Longitude Course Direction KTS MPH feet Rate Location/Type
04:30AM 35.0333 -89.9667 180° South 146 168 1,000  Level KMEM
04:31AM 34.9833 -89.9667 180° South 203 234 2,800 2,650 Climbing KMEM
04:32AM 34.9333 -89.9167 141° Southeast 287 330 6,300 3,018 Climbing KMEM
04:33AM 34.9744 -89.7414 74° East 352 405 11,100 2,912 Climbing Memphis Center
04:34AM 35.0281 -89.6217 61° Northeast 380 437 14,600 3,450 Climbing Memphis Center
04:35AM 35.0814 -89.4969 62° Northeast 404 465 18,000 2,950 Climbing Memphis Center
04:36AM 35.1411 -89.3617 62° Northeast 424 488 20,500 2,450 Climbing Memphis Center
04:37AM 35.2044 -89.2211 61° Northeast 453 521 22,900 2,300 Climbing Memphis Center
04:38AM 35.2636 -89.0778 63° Northeast 472 543 25,100 2,000 Climbing Memphis Center
04:39AM 35.3142 -88.9397 66° East 480 552 26,900 2,100 Climbing Memphis Center
04:40AM 35.3728 -88.7833 65° Northeast 492 566 29,300 2,450 Climbing Memphis Center
04:41AM 35.4272 -88.6347 66° East 487 560 31,800 507 Climbing Memphis Center
04:48AM 35.7680 -87.7180 66° East 35,000 312 Climbing FlightAware
04:48AM 35.8070 -87.6100 66° East 35,000  Level FlightAware
04:49AM 35.8440 -87.5080 66° East 35,000  Level FlightAware
04:50AM 35.8790 -87.4090 66° East 35,000  Level FlightAware
04:50AM 35.9200 -87.2970 66° East 35,000  Level FlightAware
04:51AM 35.9560 -87.1940 67° East 35,000  Level FlightAware
04:52AM 35.9917 -87.0950 66° East 478 550 35,000  Level FlightAware ADS-B
04:52AM 36.0300 -86.9890 66° East 35,000  Level FlightAware
04:53AM 36.0494 -86.9331 67° East 469 540 35,000  Level FlightAware ADS-B
04:53AM 36.0770 -86.8548 66° East 478 550 35,000  Level FlightAware ADS-B
04:54AM 36.1056 -86.7740 66° East 466 536 35,000  Level FlightAware ADS-B
04:54AM 36.1328 -86.6969 66° East 478 550 35,000  Level FlightAware ADS-B
04:55AM 36.1595 -86.6190 67° East 475 547 35,000  Level FlightAware ADS-B
04:55AM 36.1838 -86.5428 68° East 468 539 35,000  Level FlightAware ADS-B
04:56AM 36.2084 -86.4653 69° East 483 556 35,000  Level FlightAware ADS-B
04:56AM 36.2348 -86.3833 68° East 472 543 35,000  Level FlightAware ADS-B
04:57AM 36.2681 -86.2799 68° East 476 548 35,000  Level FlightAware ADS-B
04:58AM 36.2937 -86.2004 68° East 478 550 35,000  Level FlightAware ADS-B
04:58AM 36.3179 -86.1247 68° East 486 559 35,000  Level FlightAware ADS-B
04:59AM 36.3421 -86.0487 68° East 480 552 35,000  Level FlightAware ADS-B
04:59AM 36.3750 -85.9450 68° East 35,000  Level FlightAware
05:00AM 36.4140 -85.8214 69° East 35,000  Level FlightAware ADS-B
05:01AM 36.4386 -85.7435 69° East 482 555 35,000  Level FlightAware ADS-B
05:01AM 36.4633 -85.6656 68° East 480 552 35,000  Level FlightAware ADS-B
05:02AM 36.4873 -85.5890 69° East 481 554 35,000  Level FlightAware ADS-B
05:02AM 36.5117 -85.5109 69° East 455 524 35,000  Level FlightAware ADS-B
05:03AM 36.5412 -85.4161 69° East 481 554 35,000  Level FlightAware ADS-B
05:03AM 36.5668 -85.3343 69° East 483 556 35,000  Level FlightAware ADS-B
05:04AM 36.5907 -85.2575 69° East 473 544 35,000  Level FlightAware ADS-B
05:04AM 36.6195 -85.1643 69° East 489 563 35,000  Level FlightAware ADS-B
05:05AM 36.6466 -85.0761 69° East 477 549 35,000  Level FlightAware ADS-B
05:05AM 36.6707 -84.9981 69° East 483 556 35,000  Level FlightAware ADS-B
05:06AM 36.6969 -84.9125 69° East 462 532 35,000  Level FlightAware ADS-B
05:07AM 36.7249 -84.8213 69° East 475 547 35,000  Level FlightAware ADS-B
05:07AM 36.7489 -84.7425 69° East 477 549 35,000  Level FlightAware ADS-B
05:08AM 36.7760 -84.6531 69° East 470 541 35,000  Level FlightAware ADS-B
05:08AM 36.8015 -84.5688 69° East 482 555 35,000  Level FlightAware ADS-B
05:09AM 36.8253 -84.4897 69° East 478 550 35,000  Level FlightAware ADS-B
05:09AM 36.8488 -84.4119 69° East 460 529 35,000  Level FlightAware ADS-B
05:10AM 36.8732 -84.3311 69° East 477 549 35,000  Level FlightAware ADS-B
05:10AM 36.8969 -84.2516 70° East 480 552 35,000  Level FlightAware ADS-B
05:11AM 36.9202 -84.1734 70° East 471 542 35,000  Level FlightAware ADS-B
05:11AM 36.9440 -84.0940 69° East 489 563 35,000  Level FlightAware ADS-B
05:12AM 36.9673 -84.0156 70° East 457 526 35,000  Level FlightAware ADS-B
05:12AM 36.9934 -83.9278 70° East 481 554 35,000  Level FlightAware ADS-B
05:13AM 37.0291 -83.8061 70° East 481 554 35,000  Level FlightAware ADS-B
05:14AM 37.0521 -83.7277 70° East 482 555 35,000  Level FlightAware ADS-B
05:14AM 37.0756 -83.6477 70° East 479 551 35,000  Level FlightAware ADS-B
05:15AM 37.1012 -83.5605 70° East 473 544 35,000  Level FlightAware ADS-B
05:15AM 37.1297 -83.4624 70° East 489 563 35,000  Level FlightAware ADS-B
05:16AM 37.1527 -83.3831 70° East 494 568 35,000  Level FlightAware ADS-B
05:16AM 37.1789 -83.2923 70° East 480 552 35,000  Level FlightAware ADS-B
05:17AM 37.2114 -83.1794 70° East 475 547 35,000  Level FlightAware ADS-B
05:18AM 37.2349 -83.0980 70° East 486 559 35,000  Level FlightAware ADS-B
05:18AM 37.2583 -83.0165 70° East 482 555 35,000  Level FlightAware ADS-B
05:19AM 37.2859 -82.9193 70° East 481 554 35,000  Level FlightAware ADS-B
05:19AM 37.3123 -82.8261 70° East 494 568 35,000  Level FlightAware ADS-B
05:20AM 37.3413 -82.7238 70° East 482 555 35,000  Level FlightAware ADS-B
05:21AM 37.3684 -82.6282 70° East 483 556 35,000  Level FlightAware ADS-B
05:21AM 37.3910 -82.5482 70° East 466 536 35,000  Level FlightAware ADS-B
05:22AM 37.4242 -82.4310 70° East 479 551 35,000  Level FlightAware ADS-B
05:22AM 37.4462 -82.3506 71° East 478 550 35,000  Level FlightAware ADS-B
05:23AM 37.4701 -82.2649 71° East 484 557 35,000  Level FlightAware ADS-B
05:23AM 37.4927 -82.1832 71° East 491 565 35,000  Level FlightAware ADS-B
05:24AM 37.5151 -82.1027 71° East 481 554 35,000  Level FlightAware ADS-B
05:24AM 37.5372 -82.0219 71° East 489 563 35,000  Level FlightAware ADS-B
05:25AM 37.5650 -81.9210 71° East 35,000  Level FlightAware
05:25AM 37.5786 -81.8713 71° East 485 558 35,000  Level FlightAware ADS-B
05:26AM 37.6024 -81.7844 71° East 481 554 35,000  Level FlightAware ADS-B
05:26AM 37.6244 -81.7041 71° East 482 555 35,000  Level FlightAware ADS-B
05:27AM 37.6465 -81.6222 71° East 477 549 35,000  Level FlightAware ADS-B
05:28AM 37.6754 -81.5155 71° East 495 570 35,000  Level FlightAware ADS-B
05:28AM 37.6979 -81.4328 71° East 509 586 35,000  Level FlightAware ADS-B
05:29AM 37.7227 -81.3400 71° East 484 557 35,000  Level FlightAware ADS-B
05:29AM 37.7510 -81.2320 72° East 35,000  Level FlightAware
05:30AM 37.7780 -81.1230 73° East 35,000  Level FlightAware
05:31AM 37.7950 -81.0040 80° East 35,000  Level FlightAware
05:31AM 37.8040 -80.9244 82° East 479 551 35,000  Level FlightAware ADS-B
05:32AM 37.8180 -80.8030 82° East 35,000  Level FlightAware
05:32AM 37.8204 -80.7801 82° East 490 564 35,000  Level FlightAware ADS-B
05:33AM 37.8360 -80.6460 82° East 35,000  Level FlightAware
05:35AM 37.8840 -80.3450 78° East 35,000  Level FlightAware
05:35AM 37.9086 -80.2767 78° East 481 554 35,000  Level Washington Center
05:36AM 37.9686 -80.1250 63° Northeast 475 547 35,000  Level Washington Center
05:37AM 38.0258 -79.9889 62° Northeast 475 547 35,000  Level Washington Center
05:38AM 38.0858 -79.8342 64° Northeast 475 547 35,000  Level Washington Center
05:39AM 38.1433 -79.6817 64° Northeast 480 552 35,000  Level Washington Center
05:40AM 38.1903 -79.5203 70° East 480 552 35,000  Level Washington Center
05:41AM 38.2331 -79.3561 72° East 480 552 35,000 -1,119 Level Washington Center
05:46AM 38.4470 -78.5420 72° East 24,200 -1,155 Descending FlightAware
05:47AM 38.4740 -78.4470 70° East 23,500 -952 Descending FlightAware
05:48AM 38.5050 -78.3420 69° East 22,800 -946 Descending FlightAware
05:48AM 38.5360 -78.2330 70° East 21,900 -943 Descending FlightAware
05:49AM 38.5840 -78.0640 70° East 20,600 -935 Descending FlightAware
05:50AM 38.6130 -77.9640 70° East 19,800 -917 Descending FlightAware
05:51AM 38.6360 -77.8810 70° East 19,100 -908 Descending FlightAware
05:51AM 38.6470 -77.7730 83° East 18,400 -899 Descending FlightAware
05:52AM 38.6540 -77.6550 86° East 17,700 -894 Descending FlightAware
05:53AM 38.6600 -77.5520 86° East 17,100 -893 Descending FlightAware
05:53AM 38.6670 -77.4270 86° East 16,300 -892 Descending FlightAware
05:54AM 38.6730 -77.3270 86° East 15,900 -885 Descending FlightAware
05:55AM 38.6790 -77.2330 85° East 14,800 -896 Descending FlightAware
05:55AM 38.6850 -77.1260 86° East 13,400 -864 Descending FlightAware
05:56AM 38.6900 -77.0370 86° East 12,100 -814 Descending FlightAware
05:57AM 38.6940 -76.9440 87° East 11,100 -761 Descending FlightAware
05:57AM 38.6970 -76.8950 85° East 10,600 -730 Descending FlightAware
05:58AM 38.7010 -76.8270 86° East 9,900 -719 Descending FlightAware
05:58AM 38.7040 -76.7800 85° East 9,400 -702 Descending FlightAware
05:59AM 38.7080 -76.7430 82° East 9,000 -684 Descending FlightAware
05:59AM 38.7260 -76.7100 55° Northeast 8,500 -670 Descending FlightAware
06:00AM 38.7570 -76.6970 18° North 8,100 -650 Descending FlightAware
06:00AM 38.7850 -76.7060 346° North 7,700 -638 Descending FlightAware
06:00AM 38.8060 -76.7150 342° North 7,300 -625 Descending FlightAware
06:01AM 38.8730 -76.7430 342° North 6,400 -606 Descending FlightAware
06:02AM 38.9030 -76.7560 341° North 6,000 -568 Descending FlightAware
06:02AM 38.9370 -76.7700 342° North 5,500 -550 Descending FlightAware
06:02AM 38.9550 -76.7770 343° North 5,200 -522 Descending FlightAware
06:03AM 38.9820 -76.7880 342° North 4,800 -501 Descending FlightAware
06:03AM 38.9970 -76.7950 340° North 4,500 -476 Descending FlightAware
06:04AM 39.0320 -76.8090 343° North 4,100 -451 Descending FlightAware
06:04AM 39.0600 -76.8210 342° North 4,000 -425 Descending FlightAware
06:04AM 39.0720 -76.8320 325° Northwest 4,000 -438 Level FlightAware
06:05AM 39.0810 -76.8510 301° West 4,000 -455 Level FlightAware
06:05AM 39.0850 -76.8680 287° West 4,000 -475 Level FlightAware
06:05AM 39.0940 -76.9020 289° West 4,000 -496 Level FlightAware
06:05AM 39.1000 -76.9170 297° West 3,700 -535 Descending FlightAware
06:06AM 39.1130 -76.9280 327° Northwest 3,400 -502 Descending FlightAware
06:06AM 39.1260 -76.9340 340° North 3,200 -465 Descending FlightAware
06:06AM 39.1520 -76.9450 342° North 2,800 -446 Descending FlightAware
06:07AM 39.1700 -76.9520 343° North 2,500 -402 Descending FlightAware
06:07AM 39.1850 -76.9420 27° Northeast 2,200 -356 Descending FlightAware
06:07AM 39.1880 -76.9290 73° East 2,100 -302 Descending FlightAware
06:08AM 39.1870 -76.9090 94° East 2,000 -293 Descending FlightAware
06:08AM 39.1850 -76.8840 96° East 2,000 -302 Level FlightAware
06:09AM 39.1840 -76.8690 95° East 2,000 -372 Level FlightAware
06:09AM 39.1830 -76.8420 93° East 2,000 -421 Level FlightAware
06:09AM 39.1810 -76.8220 97° East 2,000 -539 Level FlightAware
06:10AM 39.1810 -76.8050 90° East 1,900 -750 Descending FlightAware
06:10AM 39.1833 -76.7500 90° East 143 165 1,200 -808 Descending Potomac TRACON
06:11AM 39.1833 -76.7000 90° East 137 158 500 -700 Descending Potomac TRACON
06:13AM 39.1667 -76.6667 96° East  Level FlightAware Approximate